sensor_id;sensor_type;location;lat;lon;timestamp;pressure;altitude;pressure_sealevel;temperature;humidity
72612;BME280;60655;52.182;4.474;2023-05-24T00:01:59;102482.31;;;9.03;80.91
72612;BME280;60655;52.182;4.474;2023-05-24T00:04:00;102476.66;;;9.06;81.01
72612;BME280;60655;52.182;4.474;2023-05-24T00:06:01;102480.47;;;9.04;81.38
72612;BME280;60655;52.182;4.474;2023-05-24T00:08:02;102474.84;;;8.91;81.78
72612;BME280;60655;52.182;4.474;2023-05-24T00:10:04;102484.13;;;9.03;81.34
72612;BME280;60655;52.182;4.474;2023-05-24T00:12:06;102480.31;;;8.97;81.82
72612;BME280;60655;52.182;4.474;2023-05-24T00:14:07;102473.19;;;8.82;82.29
72612;BME280;60655;52.182;4.474;2023-05-24T00:16:08;102474.53;;;8.86;82.34
72612;BME280;60655;52.182;4.474;2023-05-24T00:18:09;102481.63;;;8.85;82.23
72612;BME280;60655;52.182;4.474;2023-05-24T00:20:11;102472.22;;;8.91;81.91
72612;BME280;60655;52.182;4.474;2023-05-24T00:22:12;102473.34;;;8.64;82.01
72612;BME280;60655;52.182;4.474;2023-05-24T00:24:14;102481.28;;;8.72;82.49
72612;BME280;60655;52.182;4.474;2023-05-24T00:26:16;102485.13;;;8.86;82.16
72612;BME280;60655;52.182;4.474;2023-05-24T00:28:17;102484.78;;;8.89;82.39
72612;BME280;60655;52.182;4.474;2023-05-24T00:30:18;102493.06;;;9.10;82.43
72612;BME280;60655;52.182;4.474;2023-05-24T00:32:19;102478.47;;;8.82;82.16
72612;BME280;60655;52.182;4.474;2023-05-24T00:34:20;102487.75;;;8.77;82.50
72612;BME280;60655;52.182;4.474;2023-05-24T00:36:21;102484.94;;;8.63;82.30
72612;BME280;60655;52.182;4.474;2023-05-24T00:38:22;102488.59;;;8.78;82.02
72612;BME280;60655;52.182;4.474;2023-05-24T00:40:23;102475.47;;;8.68;82.06
72612;BME280;60655;52.182;4.474;2023-05-24T00:42:24;102477.28;;;8.68;82.32
72612;BME280;60655;52.182;4.474;2023-05-24T00:44:25;102478.16;;;8.85;82.11
72612;BME280;60655;52.182;4.474;2023-05-24T00:46:27;102476.81;;;8.64;81.95
72612;BME280;60655;52.182;4.474;2023-05-24T00:48:28;102477.75;;;8.47;81.87
72612;BME280;60655;52.182;4.474;2023-05-24T00:50:29;102482.63;;;8.84;82.97
72612;BME280;60655;52.182;4.474;2023-05-24T00:52:30;102469.00;;;8.55;82.22
72612;BME280;60655;52.182;4.474;2023-05-24T00:54:31;102482.25;;;8.55;82.72
72612;BME280;60655;52.182;4.474;2023-05-24T00:56:32;102480.06;;;8.34;82.85
72612;BME280;60655;52.182;4.474;2023-05-24T00:58:34;102474.53;;;8.27;83.57
72612;BME280;60655;52.182;4.474;2023-05-24T01:00:35;102457.28;;;8.15;83.54
72612;BME280;60655;52.182;4.474;2023-05-24T01:02:36;102469.81;;;8.47;83.11
72612;BME280;60655;52.182;4.474;2023-05-24T01:04:38;102475.88;;;8.31;83.68
72612;BME280;60655;52.182;4.474;2023-05-24T01:09:21;102479.06;;;8.43;83.45
72612;BME280;60655;52.182;4.474;2023-05-24T01:11:49;102480.06;;;8.42;84.00
72612;BME280;60655;52.182;4.474;2023-05-24T01:16:10;102486.13;;;8.26;84.37
72612;BME280;60655;52.182;4.474;2023-05-24T01:18:19;102476.88;;;8.30;84.07
72612;BME280;60655;52.182;4.474;2023-05-24T01:20:27;102480.06;;;8.42;83.79
72612;BME280;60655;52.182;4.474;2023-05-24T01:29:11;102474.59;;;8.35;84.44
72612;BME280;60655;52.182;4.474;2023-05-24T01:31:14;102476.19;;;8.28;85.03
72612;BME280;60655;52.182;4.474;2023-05-24T01:33:16;102476.34;;;8.27;84.86
72612;BME280;60655;52.182;4.474;2023-05-24T01:35:17;102473.22;;;8.31;85.35
72612;BME280;60655;52.182;4.474;2023-05-24T01:37:18;102474.25;;;8.38;85.09
72612;BME280;60655;52.182;4.474;2023-05-24T01:39:20;102481.88;;;8.33;85.59
72612;BME280;60655;52.182;4.474;2023-05-24T01:41:31;102479.50;;;8.30;85.46
72612;BME280;60655;52.182;4.474;2023-05-24T01:43:39;102476.50;;;8.25;85.64
72612;BME280;60655;52.182;4.474;2023-05-24T01:46:00;102468.38;;;8.19;85.54
72612;BME280;60655;52.182;4.474;2023-05-24T01:50:23;102460.47;;;8.27;85.70
72612;BME280;60655;52.182;4.474;2023-05-24T01:52:28;102470.44;;;8.41;85.36
72612;BME280;60655;52.182;4.474;2023-05-24T01:54:32;102456.66;;;8.29;85.12
72612;BME280;60655;52.182;4.474;2023-05-24T01:56:38;102451.69;;;8.26;85.17
72612;BME280;60655;52.182;4.474;2023-05-24T01:58:41;102459.47;;;8.28;85.61
72612;BME280;60655;52.182;4.474;2023-05-24T02:00:44;102455.84;;;8.29;85.33
72612;BME280;60655;52.182;4.474;2023-05-24T02:02:45;102453.44;;;8.52;85.12
72612;BME280;60655;52.182;4.474;2023-05-24T02:04:46;102451.13;;;8.49;85.14
72612;BME280;60655;52.182;4.474;2023-05-24T02:06:47;102444.81;;;8.33;84.85
72612;BME280;60655;52.182;4.474;2023-05-24T02:08:48;102449.44;;;8.48;84.47
72612;BME280;60655;52.182;4.474;2023-05-24T02:10:49;102446.47;;;8.42;84.83
72612;BME280;60655;52.182;4.474;2023-05-24T02:12:50;102442.00;;;8.35;85.40
72612;BME280;60655;52.182;4.474;2023-05-24T02:14:51;102443.44;;;8.29;85.73
72612;BME280;60655;52.182;4.474;2023-05-24T02:16:52;102438.59;;;8.17;85.99
72612;BME280;60655;52.182;4.474;2023-05-24T02:18:58;102437.97;;;8.31;86.00
72612;BME280;60655;52.182;4.474;2023-05-24T02:21:00;102442.00;;;8.35;86.08
72612;BME280;60655;52.182;4.474;2023-05-24T02:23:03;102431.97;;;8.21;86.35
72612;BME280;60655;52.182;4.474;2023-05-24T02:25:04;102432.16;;;8.19;86.63
72612;BME280;60655;52.182;4.474;2023-05-24T02:27:05;102436.28;;;8.22;86.55
72612;BME280;60655;52.182;4.474;2023-05-24T02:29:06;102441.44;;;8.23;86.65
72612;BME280;60655;52.182;4.474;2023-05-24T02:31:07;102434.44;;;8.14;86.86
72612;BME280;60655;52.182;4.474;2023-05-24T02:33:09;102429.63;;;8.09;87.20
72612;BME280;60655;52.182;4.474;2023-05-24T02:35:11;102436.25;;;8.13;87.14
72612;BME280;60655;52.182;4.474;2023-05-24T02:37:12;102440.13;;;8.27;86.29
72612;BME280;60655;52.182;4.474;2023-05-24T02:39:14;102444.59;;;8.27;86.01
72612;BME280;60655;52.182;4.474;2023-05-24T02:41:15;102439.59;;;8.24;85.61
72612;BME280;60655;52.182;4.474;2023-05-24T02:43:17;102444.19;;;8.05;85.98
72612;BME280;60655;52.182;4.474;2023-05-24T02:45:18;102455.25;;;8.09;86.09
72612;BME280;60655;52.182;4.474;2023-05-24T02:47:19;102457.13;;;8.17;86.12
72612;BME280;60655;52.182;4.474;2023-05-24T02:49:20;102455.94;;;8.11;86.10
72612;BME280;60655;52.182;4.474;2023-05-24T02:51:21;102464.03;;;8.09;86.12
72612;BME280;60655;52.182;4.474;2023-05-24T02:53:21;102456.09;;;8.09;85.80
72612;BME280;60655;52.182;4.474;2023-05-24T02:55:22;102457.28;;;8.07;85.81
72612;BME280;60655;52.182;4.474;2023-05-24T02:57:23;102452.13;;;8.05;85.55
72612;BME280;60655;52.182;4.474;2023-05-24T02:59:24;102453.91;;;7.97;85.47
72612;BME280;60655;52.182;4.474;2023-05-24T03:01:25;102452.41;;;7.94;85.50
72612;BME280;60655;52.182;4.474;2023-05-24T03:03:25;102451.63;;;8.02;85.19
72612;BME280;60655;52.182;4.474;2023-05-24T03:05:26;102447.16;;;8.02;85.13
72612;BME280;60655;52.182;4.474;2023-05-24T03:07:27;102440.88;;;8.03;84.93
72612;BME280;60655;52.182;4.474;2023-05-24T03:09:28;102442.28;;;7.90;84.79
72612;BME280;60655;52.182;4.474;2023-05-24T03:11:29;102448.00;;;8.11;85.29
72612;BME280;60655;52.182;4.474;2023-05-24T03:13:29;102442.66;;;7.95;85.69
72612;BME280;60655;52.182;4.474;2023-05-24T03:15:30;102448.25;;;7.92;86.04
72612;BME280;60655;52.182;4.474;2023-05-24T03:17:31;102442.34;;;7.98;85.90
72612;BME280;60655;52.182;4.474;2023-05-24T03:19:32;102434.72;;;7.95;86.16
72612;BME280;60655;52.182;4.474;2023-05-24T03:21:33;102443.47;;;7.95;86.27
72612;BME280;60655;52.182;4.474;2023-05-24T03:23:34;102441.19;;;8.00;86.61
72612;BME280;60655;52.182;4.474;2023-05-24T03:25:35;102433.72;;;7.96;86.63
72612;BME280;60655;52.182;4.474;2023-05-24T03:27:35;102428.22;;;7.89;86.86
72612;BME280;60655;52.182;4.474;2023-05-24T03:29:36;102413.03;;;7.91;87.26
72612;BME280;60655;52.182;4.474;2023-05-24T03:31:37;102424.16;;;8.11;87.37
72612;BME280;60655;52.182;4.474;2023-05-24T03:33:38;102428.63;;;8.10;87.22
72612;BME280;60655;52.182;4.474;2023-05-24T03:35:39;102430.56;;;7.92;87.39
72612;BME280;60655;52.182;4.474;2023-05-24T03:37:40;102432.63;;;7.72;87.77
72612;BME280;60655;52.182;4.474;2023-05-24T03:39:41;102427.88;;;7.84;87.73
72612;BME280;60655;52.182;4.474;2023-05-24T03:41:42;102434.81;;;7.77;87.82
72612;BME280;60655;52.182;4.474;2023-05-24T03:43:42;102436.47;;;7.86;87.73
72612;BME280;60655;52.182;4.474;2023-05-24T03:45:43;102434.47;;;7.80;88.03
72612;BME280;60655;52.182;4.474;2023-05-24T03:47:44;102431.50;;;7.75;87.96
72612;BME280;60655;52.182;4.474;2023-05-24T03:49:45;102430.00;;;7.72;87.39
72612;BME280;60655;52.182;4.474;2023-05-24T03:51:46;102437.94;;;7.72;87.64
72612;BME280;60655;52.182;4.474;2023-05-24T03:53:47;102443.06;;;7.82;87.37
72612;BME280;60655;52.182;4.474;2023-05-24T03:55:48;102438.47;;;7.84;87.14
72612;BME280;60655;52.182;4.474;2023-05-24T03:57:49;102443.22;;;7.80;87.28
72612;BME280;60655;52.182;4.474;2023-05-24T03:59:49;102437.78;;;7.74;87.55
72612;BME280;60655;52.182;4.474;2023-05-24T04:01:50;102450.19;;;7.82;87.16
72612;BME280;60655;52.182;4.474;2023-05-24T04:03:51;102432.31;;;7.75;87.34
72612;BME280;60655;52.182;4.474;2023-05-24T04:05:55;102440.31;;;7.92;86.92
72612;BME280;60655;52.182;4.474;2023-05-24T04:07:56;102446.44;;;7.92;87.17
72612;BME280;60655;52.182;4.474;2023-05-24T04:09:57;102453.78;;;8.14;87.41
72612;BME280;60655;52.182;4.474;2023-05-24T04:11:58;102453.59;;;8.00;87.43
72612;BME280;60655;52.182;4.474;2023-05-24T04:13:59;102447.06;;;7.86;87.46
72612;BME280;60655;52.182;4.474;2023-05-24T04:16:01;102451.41;;;7.95;87.89
72612;BME280;60655;52.182;4.474;2023-05-24T04:18:02;102450.91;;;7.92;87.61
72612;BME280;60655;52.182;4.474;2023-05-24T04:20:03;102447.88;;;8.21;87.31
72612;BME280;60655;52.182;4.474;2023-05-24T04:22:05;102452.81;;;8.16;87.41
72612;BME280;60655;52.182;4.474;2023-05-24T04:24:06;102451.84;;;8.25;87.36
72612;BME280;60655;52.182;4.474;2023-05-24T04:26:07;102437.13;;;8.22;87.47
72612;BME280;60655;52.182;4.474;2023-05-24T04:28:09;102447.75;;;8.30;87.38
72612;BME280;60655;52.182;4.474;2023-05-24T04:30:10;102450.94;;;8.42;87.48
72612;BME280;60655;52.182;4.474;2023-05-24T04:32:11;102434.72;;;8.45;87.55
72612;BME280;60655;52.182;4.474;2023-05-24T04:34:14;102444.69;;;8.59;87.61
72612;BME280;60655;52.182;4.474;2023-05-24T04:36:15;102448.97;;;8.68;87.70
72612;BME280;60655;52.182;4.474;2023-05-24T04:38:17;102447.50;;;8.82;87.67
72612;BME280;60655;52.182;4.474;2023-05-24T04:40:19;102443.03;;;8.83;88.17
72612;BME280;60655;52.182;4.474;2023-05-24T04:42:23;102438.59;;;8.91;88.62
72612;BME280;60655;52.182;4.474;2023-05-24T04:44:24;102441.22;;;8.99;88.72
72612;BME280;60655;52.182;4.474;2023-05-24T04:46:25;102440.06;;;9.10;88.58
72612;BME280;60655;52.182;4.474;2023-05-24T04:48:27;102440.38;;;9.23;88.75
72612;BME280;60655;52.182;4.474;2023-05-24T04:50:28;102445.00;;;9.29;88.50
72612;BME280;60655;52.182;4.474;2023-05-24T04:52:29;102430.06;;;9.44;89.05
72612;BME280;60655;52.182;4.474;2023-05-24T04:54:30;102424.03;;;9.59;88.46
72612;BME280;60655;52.182;4.474;2023-05-24T04:56:31;102434.47;;;9.68;88.62
72612;BME280;60655;52.182;4.474;2023-05-24T04:58:32;102428.25;;;9.84;88.54
72612;BME280;60655;52.182;4.474;2023-05-24T05:00:33;102437.22;;;9.83;88.30
72612;BME280;60655;52.182;4.474;2023-05-24T05:02:34;102437.19;;;9.99;88.53
72612;BME280;60655;52.182;4.474;2023-05-24T05:04:35;102437.09;;;10.15;88.54
72612;BME280;60655;52.182;4.474;2023-05-24T05:06:36;102437.06;;;10.24;88.70
72612;BME280;60655;52.182;4.474;2023-05-24T05:08:39;102439.53;;;10.33;88.66
72612;BME280;60655;52.182;4.474;2023-05-24T05:10:40;102438.28;;;10.44;88.49
72612;BME280;60655;52.182;4.474;2023-05-24T05:12:42;102436.28;;;10.46;88.18
72612;BME280;60655;52.182;4.474;2023-05-24T05:14:42;102428.72;;;10.58;87.99
72612;BME280;60655;52.182;4.474;2023-05-24T05:16:43;102436.34;;;10.61;87.40
72612;BME280;60655;52.182;4.474;2023-05-24T05:18:45;102441.97;;;10.66;87.55
72612;BME280;60655;52.182;4.474;2023-05-24T05:20:46;102443.66;;;10.81;87.02
72612;BME280;60655;52.182;4.474;2023-05-24T05:22:48;102442.31;;;10.86;86.66
72612;BME280;60655;52.182;4.474;2023-05-24T05:24:50;102437.94;;;10.93;86.13
72612;BME280;60655;52.182;4.474;2023-05-24T05:26:51;102430.88;;;11.00;85.57
72612;BME280;60655;52.182;4.474;2023-05-24T05:28:52;102445.47;;;11.04;85.81
72612;BME280;60655;52.182;4.474;2023-05-24T05:30:54;102432.75;;;11.14;85.05
72612;BME280;60655;52.182;4.474;2023-05-24T05:32:56;102436.81;;;11.25;84.87
72612;BME280;60655;52.182;4.474;2023-05-24T05:34:57;102447.56;;;11.46;83.50
72612;BME280;60655;52.182;4.474;2023-05-24T05:36:58;102446.84;;;11.52;82.61
72612;BME280;60655;52.182;4.474;2023-05-24T05:38:59;102450.84;;;11.33;83.04
72612;BME280;60655;52.182;4.474;2023-05-24T05:41:00;102451.31;;;11.37;83.06
72612;BME280;60655;52.182;4.474;2023-05-24T05:43:01;102458.69;;;11.49;81.95
72612;BME280;60655;52.182;4.474;2023-05-24T05:45:02;102449.50;;;11.67;80.92
72612;BME280;60655;52.182;4.474;2023-05-24T05:47:03;102446.91;;;11.59;81.06
72612;BME280;60655;52.182;4.474;2023-05-24T05:49:06;102453.06;;;11.59;81.19
72612;BME280;60655;52.182;4.474;2023-05-24T05:51:08;102458.84;;;11.63;80.88
72612;BME280;60655;52.182;4.474;2023-05-24T05:53:08;102453.00;;;11.67;80.25
72612;BME280;60655;52.182;4.474;2023-05-24T05:55:09;102440.59;;;11.74;80.25
72612;BME280;60655;52.182;4.474;2023-05-24T05:57:11;102445.66;;;11.84;80.34
72612;BME280;60655;52.182;4.474;2023-05-24T05:59:14;102448.59;;;11.89;80.21
72612;BME280;60655;52.182;4.474;2023-05-24T06:01:17;102444.91;;;11.75;78.80
72612;BME280;60655;52.182;4.474;2023-05-24T06:03:18;102436.84;;;11.69;78.72
72612;BME280;60655;52.182;4.474;2023-05-24T06:05:19;102433.91;;;11.64;78.96
72612;BME280;60655;52.182;4.474;2023-05-24T06:07:21;102447.31;;;11.70;79.00
72612;BME280;60655;52.182;4.474;2023-05-24T06:09:22;102438.84;;;11.67;79.17
72612;BME280;60655;52.182;4.474;2023-05-24T06:11:22;102454.53;;;11.62;80.49
72612;BME280;60655;52.182;4.474;2023-05-24T06:13:23;102452.22;;;11.81;80.04
72612;BME280;60655;52.182;4.474;2023-05-24T06:15:26;102462.19;;;11.94;79.24
72612;BME280;60655;52.182;4.474;2023-05-24T06:17:27;102459.16;;;11.97;78.42
72612;BME280;60655;52.182;4.474;2023-05-24T06:19:28;102461.72;;;12.05;77.92
72612;BME280;60655;52.182;4.474;2023-05-24T06:21:29;102450.91;;;11.92;77.42
72612;BME280;60655;52.182;4.474;2023-05-24T06:23:31;102457.13;;;11.99;78.45
72612;BME280;60655;52.182;4.474;2023-05-24T06:25:32;102469.16;;;11.95;77.42
72612;BME280;60655;52.182;4.474;2023-05-24T06:27:34;102457.03;;;12.07;77.01
72612;BME280;60655;52.182;4.474;2023-05-24T06:29:35;102466.50;;;12.10;76.55
72612;BME280;60655;52.182;4.474;2023-05-24T06:31:36;102460.06;;;12.04;76.17
72612;BME280;60655;52.182;4.474;2023-05-24T06:33:37;102462.69;;;12.19;76.31
72612;BME280;60655;52.182;4.474;2023-05-24T06:35:38;102469.94;;;12.25;75.97
72612;BME280;60655;52.182;4.474;2023-05-24T06:37:39;102466.28;;;12.26;76.46
72612;BME280;60655;52.182;4.474;2023-05-24T06:39:40;102462.22;;;12.30;76.56
72612;BME280;60655;52.182;4.474;2023-05-24T06:41:42;102463.06;;;12.31;76.55
72612;BME280;60655;52.182;4.474;2023-05-24T06:43:44;102459.38;;;12.32;76.22
72612;BME280;60655;52.182;4.474;2023-05-24T06:45:45;102456.72;;;12.32;76.18
72612;BME280;60655;52.182;4.474;2023-05-24T06:47:46;102472.19;;;12.43;76.28
72612;BME280;60655;52.182;4.474;2023-05-24T06:49:47;102471.19;;;12.44;76.48
72612;BME280;60655;52.182;4.474;2023-05-24T06:51:49;102471.59;;;12.62;75.13
72612;BME280;60655;52.182;4.474;2023-05-24T06:53:50;102465.38;;;12.55;75.03
72612;BME280;60655;52.182;4.474;2023-05-24T06:55:51;102471.22;;;12.65;74.70
72612;BME280;60655;52.182;4.474;2023-05-24T06:57:52;102470.78;;;12.62;75.01
72612;BME280;60655;52.182;4.474;2023-05-24T06:59:53;102474.47;;;12.61;75.12
72612;BME280;60655;52.182;4.474;2023-05-24T07:01:54;102465.91;;;12.65;74.46
72612;BME280;60655;52.182;4.474;2023-05-24T07:03:57;102451.47;;;12.60;74.48
72612;BME280;60655;52.182;4.474;2023-05-24T07:05:58;102467.91;;;12.84;74.36
72612;BME280;60655;52.182;4.474;2023-05-24T07:07:59;102466.97;;;12.92;74.31
72612;BME280;60655;52.182;4.474;2023-05-24T07:10:00;102464.56;;;12.97;74.47
72612;BME280;60655;52.182;4.474;2023-05-24T07:12:01;102470.97;;;13.24;73.61
72612;BME280;60655;52.182;4.474;2023-05-24T07:14:02;102467.50;;;13.09;73.04
72612;BME280;60655;52.182;4.474;2023-05-24T07:16:04;102475.13;;;13.12;72.74
72612;BME280;60655;52.182;4.474;2023-05-24T07:18:05;102478.56;;;13.06;73.86
72612;BME280;60655;52.182;4.474;2023-05-24T07:20:07;102464.00;;;13.30;72.65
72612;BME280;60655;52.182;4.474;2023-05-24T07:22:12;102474.16;;;13.41;72.71
72612;BME280;60655;52.182;4.474;2023-05-24T07:24:13;102478.03;;;13.38;71.26
72612;BME280;60655;52.182;4.474;2023-05-24T07:26:14;102479.63;;;13.33;70.52
72612;BME280;60655;52.182;4.474;2023-05-24T07:28:15;102485.28;;;13.16;71.10
72612;BME280;60655;52.182;4.474;2023-05-24T07:30:19;102471.00;;;13.09;72.35
72612;BME280;60655;52.182;4.474;2023-05-24T07:32:20;102475.25;;;13.04;73.13
72612;BME280;60655;52.182;4.474;2023-05-24T07:34:21;102482.84;;;13.22;73.09
72612;BME280;60655;52.182;4.474;2023-05-24T07:36:23;102474.09;;;13.28;71.41
72612;BME280;60655;52.182;4.474;2023-05-24T07:38:25;102473.09;;;13.35;71.09
72612;BME280;60655;52.182;4.474;2023-05-24T07:40:28;102471.69;;;13.39;71.61
72612;BME280;60655;52.182;4.474;2023-05-24T07:42:30;102468.69;;;13.49;70.77
72612;BME280;60655;52.182;4.474;2023-05-24T07:44:31;102482.19;;;13.75;69.74
72612;BME280;60655;52.182;4.474;2023-05-24T07:46:32;102463.34;;;13.90;69.22
72612;BME280;60655;52.182;4.474;2023-05-24T07:48:33;102476.63;;;14.11;68.59
72612;BME280;60655;52.182;4.474;2023-05-24T07:50:34;102470.53;;;13.83;68.29
72612;BME280;60655;52.182;4.474;2023-05-24T07:52:35;102477.69;;;13.76;68.64
72612;BME280;60655;52.182;4.474;2023-05-24T07:54:38;102482.00;;;13.77;68.73
72612;BME280;60655;52.182;4.474;2023-05-24T07:56:42;102474.59;;;14.13;67.90
72612;BME280;60655;52.182;4.474;2023-05-24T07:58:44;102476.00;;;14.16;68.62
72612;BME280;60655;52.182;4.474;2023-05-24T08:00:46;102476.28;;;14.28;68.13
72612;BME280;60655;52.182;4.474;2023-05-24T08:02:47;102473.06;;;14.52;66.04
72612;BME280;60655;52.182;4.474;2023-05-24T08:04:48;102476.16;;;14.49;67.06
72612;BME280;60655;52.182;4.474;2023-05-24T08:06:49;102472.69;;;14.75;66.90
72612;BME280;60655;52.182;4.474;2023-05-24T08:08:50;102474.56;;;14.81;64.82
72612;BME280;60655;52.182;4.474;2023-05-24T08:10:51;102472.09;;;14.79;64.16
72612;BME280;60655;52.182;4.474;2023-05-24T08:12:52;102477.84;;;14.76;64.97
72612;BME280;60655;52.182;4.474;2023-05-24T08:14:55;102476.22;;;14.89;65.13
72612;BME280;60655;52.182;4.474;2023-05-24T08:16:56;102463.28;;;14.99;63.77
72612;BME280;60655;52.182;4.474;2023-05-24T08:18:57;102473.34;;;14.90;64.03
72612;BME280;60655;52.182;4.474;2023-05-24T08:20:58;102469.44;;;14.86;64.16
72612;BME280;60655;52.182;4.474;2023-05-24T08:22:59;102458.50;;;14.74;64.61
72612;BME280;60655;52.182;4.474;2023-05-24T08:25:01;102466.16;;;14.97;63.58
72612;BME280;60655;52.182;4.474;2023-05-24T08:27:02;102463.88;;;14.81;62.22
72612;BME280;60655;52.182;4.474;2023-05-24T08:29:04;102477.25;;;14.88;62.03
72612;BME280;60655;52.182;4.474;2023-05-24T08:31:05;102472.09;;;14.66;63.35
72612;BME280;60655;52.182;4.474;2023-05-24T08:33:06;102475.59;;;14.73;62.76
72612;BME280;60655;52.182;4.474;2023-05-24T08:35:08;102459.53;;;14.67;64.05
72612;BME280;60655;52.182;4.474;2023-05-24T08:37:09;102459.16;;;14.96;63.08
72612;BME280;60655;52.182;4.474;2023-05-24T08:39:10;102474.56;;;15.47;61.67
72612;BME280;60655;52.182;4.474;2023-05-24T08:41:11;102458.47;;;15.67;61.39
72612;BME280;60655;52.182;4.474;2023-05-24T08:43:12;102471.69;;;15.62;60.86
72612;BME280;60655;52.182;4.474;2023-05-24T08:45:14;102473.94;;;15.51;60.22
72612;BME280;60655;52.182;4.474;2023-05-24T08:47:15;102475.59;;;15.66;60.13
72612;BME280;60655;52.182;4.474;2023-05-24T08:49:17;102471.28;;;15.45;60.59
72612;BME280;60655;52.182;4.474;2023-05-24T08:51:18;102461.81;;;15.42;61.29
72612;BME280;60655;52.182;4.474;2023-05-24T08:53:20;102467.38;;;15.47;61.96
72612;BME280;60655;52.182;4.474;2023-05-24T08:55:24;102467.97;;;15.43;61.74
72612;BME280;60655;52.182;4.474;2023-05-24T08:57:26;102482.00;;;15.58;61.22
72612;BME280;60655;52.182;4.474;2023-05-24T08:59:28;102473.34;;;15.10;60.78
72612;BME280;60655;52.182;4.474;2023-05-24T09:01:30;102472.13;;;15.19;60.55
72612;BME280;60655;52.182;4.474;2023-05-24T09:03:31;102477.88;;;15.56;60.29
72612;BME280;60655;52.182;4.474;2023-05-24T09:05:33;102472.72;;;15.34;61.16
72612;BME280;60655;52.182;4.474;2023-05-24T09:07:35;102478.06;;;15.61;59.96
72612;BME280;60655;52.182;4.474;2023-05-24T09:09:41;102454.75;;;15.81;60.50
72612;BME280;60655;52.182;4.474;2023-05-24T09:11:46;102466.13;;;15.63;60.40
72612;BME280;60655;52.182;4.474;2023-05-24T09:13:49;102471.41;;;15.90;58.91
72612;BME280;60655;52.182;4.474;2023-05-24T09:15:51;102475.69;;;16.04;58.74
72612;BME280;60655;52.182;4.474;2023-05-24T09:17:52;102473.59;;;16.12;59.05
72612;BME280;60655;52.182;4.474;2023-05-24T09:19:53;102473.22;;;16.02;59.32
72612;BME280;60655;52.182;4.474;2023-05-24T09:21:55;102471.06;;;16.17;59.70
72612;BME280;60655;52.182;4.474;2023-05-24T09:23:57;102471.88;;;16.25;58.28
72612;BME280;60655;52.182;4.474;2023-05-24T09:26:06;102465.69;;;16.24;56.68
72612;BME280;60655;52.182;4.474;2023-05-24T09:28:07;102462.00;;;16.18;57.70
72612;BME280;60655;52.182;4.474;2023-05-24T09:30:09;102461.66;;;16.46;57.38
72612;BME280;60655;52.182;4.474;2023-05-24T09:32:12;102468.00;;;16.52;57.57
72612;BME280;60655;52.182;4.474;2023-05-24T09:34:14;102460.88;;;16.39;56.95
72612;BME280;60655;52.182;4.474;2023-05-24T09:36:16;102475.78;;;16.73;55.49
72612;BME280;60655;52.182;4.474;2023-05-24T09:38:17;102465.44;;;16.39;56.83
72612;BME280;60655;52.182;4.474;2023-05-24T09:40:19;102467.97;;;16.65;57.62
72612;BME280;60655;52.182;4.474;2023-05-24T09:42:25;102468.88;;;16.84;55.95
72612;BME280;60655;52.182;4.474;2023-05-24T09:44:27;102464.44;;;16.96;55.81
72612;BME280;60655;52.182;4.474;2023-05-24T09:46:34;102458.09;;;16.91;55.50
72612;BME280;60655;52.182;4.474;2023-05-24T09:48:35;102468.00;;;16.90;55.48
72612;BME280;60655;52.182;4.474;2023-05-24T09:50:36;102462.75;;;16.39;56.61
72612;BME280;60655;52.182;4.474;2023-05-24T09:52:38;102461.97;;;16.25;57.51
72612;BME280;60655;52.182;4.474;2023-05-24T09:54:39;102466.81;;;16.10;58.00
72612;BME280;60655;52.182;4.474;2023-05-24T09:56:41;102463.03;;;16.17;58.07
72612;BME280;60655;52.182;4.474;2023-05-24T09:58:44;102453.94;;;16.18;58.03
72612;BME280;60655;52.182;4.474;2023-05-24T10:00:46;102453.38;;;16.48;57.67
72612;BME280;60655;52.182;4.474;2023-05-24T10:02:59;102446.91;;;16.62;56.65
72612;BME280;60655;52.182;4.474;2023-05-24T10:05:00;102449.94;;;16.41;55.41
72612;BME280;60655;52.182;4.474;2023-05-24T10:07:03;102453.03;;;16.44;55.57
72612;BME280;60655;52.182;4.474;2023-05-24T10:09:05;102439.59;;;16.44;56.77
72612;BME280;60655;52.182;4.474;2023-05-24T10:11:07;102449.41;;;16.64;56.09
72612;BME280;60655;52.182;4.474;2023-05-24T10:13:08;102454.66;;;16.77;57.27
72612;BME280;60655;52.182;4.474;2023-05-24T10:15:10;102450.28;;;17.07;54.50
72612;BME280;60655;52.182;4.474;2023-05-24T10:17:11;102443.47;;;16.86;52.94
72612;BME280;60655;52.182;4.474;2023-05-24T10:19:12;102456.91;;;16.80;54.13
72612;BME280;60655;52.182;4.474;2023-05-24T10:21:13;102447.94;;;16.61;55.82
72612;BME280;60655;52.182;4.474;2023-05-24T10:23:19;102447.53;;;16.96;55.00
72612;BME280;60655;52.182;4.474;2023-05-24T10:25:23;102448.78;;;16.93;55.00
72612;BME280;60655;52.182;4.474;2023-05-24T10:27:29;102454.25;;;17.05;54.54
72612;BME280;60655;52.182;4.474;2023-05-24T10:29:55;102461.56;;;16.66;54.92
72612;BME280;60655;52.182;4.474;2023-05-24T10:31:59;102455.84;;;16.87;53.98
72612;BME280;60655;52.182;4.474;2023-05-24T10:34:02;102451.41;;;17.00;55.13
72612;BME280;60655;52.182;4.474;2023-05-24T10:36:06;102464.22;;;17.23;54.48
72612;BME280;60655;52.182;4.474;2023-05-24T10:38:09;102463.97;;;17.31;53.20
72612;BME280;60655;52.182;4.474;2023-05-24T10:40:17;102464.06;;;17.17;53.30
72612;BME280;60655;52.182;4.474;2023-05-24T10:42:19;102459.03;;;17.28;53.49
72612;BME280;60655;52.182;4.474;2023-05-24T10:44:21;102464.72;;;16.88;54.74
72612;BME280;60655;52.182;4.474;2023-05-24T10:46:22;102460.50;;;16.99;53.88
72612;BME280;60655;52.182;4.474;2023-05-24T10:50:24;102454.59;;;17.33;53.14
72612;BME280;60655;52.182;4.474;2023-05-24T10:52:35;102468.63;;;17.35;53.84
72612;BME280;60655;52.182;4.474;2023-05-24T10:54:36;102465.97;;;17.10;54.71
72612;BME280;60655;52.182;4.474;2023-05-24T10:56:48;102463.81;;;16.69;54.40
72612;BME280;60655;52.182;4.474;2023-05-24T11:01:12;102463.19;;;16.74;52.35